sensor_id;sensor_type;location;lat;lon;timestamp;pressure;altitude;pressure_sealevel;temperature;humidity
72409;BME280;60402;48.082;11.628;2022-10-16T00:01:18;95404.09;;;11.98;100.00
72409;BME280;60402;48.082;11.628;2022-10-16T00:03:45;95424.63;;;11.90;100.00
72409;BME280;60402;48.082;11.628;2022-10-16T00:06:11;95413.28;;;11.77;100.00
72409;BME280;60402;48.082;11.628;2022-10-16T00:08:38;95419.53;;;11.85;100.00
72409;BME280;60402;48.082;11.628;2022-10-16T00:11:08;95393.13;;;11.75;100.00
72409;BME280;60402;48.082;11.628;2022-10-16T00:13:35;95407.50;;;11.81;100.00
72409;BME280;60402;48.082;11.628;2022-10-16T00:16:02;95405.63;;;11.90;100.00
72409;BME280;60402;48.082;11.628;2022-10-16T00:18:29;95416.94;;;11.90;100.00
72409;BME280;60402;48.082;11.628;2022-10-16T00:20:55;95389.19;;;11.72;100.00
72409;BME280;60402;48.082;11.628;2022-10-16T00:23:21;95405.38;;;11.72;100.00
72409;BME280;60402;48.082;11.628;2022-10-16T00:25:57;95426.44;;;11.96;100.00
72409;BME280;60402;48.082;11.628;2022-10-16T00:28:23;95412.38;;;11.80;100.00
72409;BME280;60402;48.082;11.628;2022-10-16T00:30:49;95400.41;;;11.63;100.00
72409;BME280;60402;48.082;11.628;2022-10-16T00:33:14;95432.22;;;11.67;100.00
72409;BME280;60402;48.082;11.628;2022-10-16T00:35:40;95416.47;;;11.54;100.00
72409;BME280;60402;48.082;11.628;2022-10-16T00:38:05;95427.91;;;11.50;100.00
72409;BME280;60402;48.082;11.628;2022-10-16T00:40:30;95434.81;;;11.49;100.00
72409;BME280;60402;48.082;11.628;2022-10-16T00:42:56;95420.63;;;11.36;100.00
72409;BME280;60402;48.082;11.628;2022-10-16T00:45:22;95428.78;;;11.34;100.00
72409;BME280;60402;48.082;11.628;2022-10-16T00:47:48;95437.50;;;11.40;100.00
72409;BME280;60402;48.082;11.628;2022-10-16T00:50:31;95435.34;;;11.31;100.00
72409;BME280;60402;48.082;11.628;2022-10-16T00:52:58;95422.09;;;11.28;100.00
72409;BME280;60402;48.082;11.628;2022-10-16T00:55:26;95426.41;;;11.33;100.00
72409;BME280;60402;48.082;11.628;2022-10-16T00:57:54;95414.84;;;11.27;100.00
72409;BME280;60402;48.082;11.628;2022-10-16T01:00:23;95411.56;;;11.29;100.00
72409;BME280;60402;48.082;11.628;2022-10-16T01:02:56;95417.72;;;11.40;100.00
72409;BME280;60402;48.082;11.628;2022-10-16T01:05:24;95424.81;;;11.32;100.00
72409;BME280;60402;48.082;11.628;2022-10-16T01:08:22;95428.44;;;11.32;100.00
72409;BME280;60402;48.082;11.628;2022-10-16T01:10:57;95421.31;;;11.27;100.00
72409;BME280;60402;48.082;11.628;2022-10-16T01:13:36;95436.47;;;11.46;100.00
72409;BME280;60402;48.082;11.628;2022-10-16T01:16:17;95427.44;;;11.39;100.00
72409;BME280;60402;48.082;11.628;2022-10-16T01:18:46;95429.22;;;11.33;100.00
72409;BME280;60402;48.082;11.628;2022-10-16T01:21:28;95443.28;;;11.49;100.00
72409;BME280;60402;48.082;11.628;2022-10-16T01:29:30;95442.16;;;11.46;100.00
72409;BME280;60402;48.082;11.628;2022-10-16T01:32:10;95437.41;;;11.43;100.00
72409;BME280;60402;48.082;11.628;2022-10-16T01:34:53;95453.38;;;11.50;100.00
72409;BME280;60402;48.082;11.628;2022-10-16T01:37:35;95432.97;;;11.30;100.00
72409;BME280;60402;48.082;11.628;2022-10-16T01:40:06;95441.22;;;11.24;100.00
72409;BME280;60402;48.082;11.628;2022-10-16T01:42:37;95455.16;;;11.31;100.00
72409;BME280;60402;48.082;11.628;2022-10-16T01:45:06;95448.00;;;11.26;100.00
72409;BME280;60402;48.082;11.628;2022-10-16T01:47:34;95442.78;;;11.12;100.00
72409;BME280;60402;48.082;11.628;2022-10-16T01:50:02;95445.13;;;11.01;100.00
72409;BME280;60402;48.082;11.628;2022-10-16T01:52:32;95442.41;;;10.97;100.00
72409;BME280;60402;48.082;11.628;2022-10-16T01:55:00;95459.50;;;11.07;100.00
72409;BME280;60402;48.082;11.628;2022-10-16T01:57:28;95456.91;;;11.12;100.00
72409;BME280;60402;48.082;11.628;2022-10-16T01:59:58;95448.50;;;10.96;100.00
72409;BME280;60402;48.082;11.628;2022-10-16T02:02:26;95449.53;;;11.02;100.00
72409;BME280;60402;48.082;11.628;2022-10-16T02:04:58;95441.03;;;10.89;100.00
72409;BME280;60402;48.082;11.628;2022-10-16T02:07:27;95429.03;;;10.85;100.00
72409;BME280;60402;48.082;11.628;2022-10-16T02:09:53;95435.81;;;10.88;100.00
72409;BME280;60402;48.082;11.628;2022-10-16T02:12:25;95425.00;;;10.99;100.00
72409;BME280;60402;48.082;11.628;2022-10-16T02:14:52;95424.44;;;11.04;100.00
72409;BME280;60402;48.082;11.628;2022-10-16T02:17:19;95440.66;;;11.16;100.00
72409;BME280;60402;48.082;11.628;2022-10-16T02:19:46;95427.06;;;11.11;100.00
72409;BME280;60402;48.082;11.628;2022-10-16T02:22:18;95433.41;;;11.15;100.00
72409;BME280;60402;48.082;11.628;2022-10-16T02:24:54;95434.63;;;11.14;100.00
72409;BME280;60402;48.082;11.628;2022-10-16T02:27:34;95442.31;;;11.14;100.00
72409;BME280;60402;48.082;11.628;2022-10-16T02:30:13;95432.59;;;11.15;100.00
72409;BME280;60402;48.082;11.628;2022-10-16T02:32:42;95444.34;;;11.13;100.00
72409;BME280;60402;48.082;11.628;2022-10-16T02:35:09;95438.00;;;11.09;100.00
72409;BME280;60402;48.082;11.628;2022-10-16T02:37:35;95441.19;;;11.11;100.00
72409;BME280;60402;48.082;11.628;2022-10-16T02:40:02;95428.84;;;11.05;100.00
72409;BME280;60402;48.082;11.628;2022-10-16T02:42:36;95433.16;;;11.10;100.00
72409;BME280;60402;48.082;11.628;2022-10-16T02:45:03;95438.94;;;11.06;100.00
72409;BME280;60402;48.082;11.628;2022-10-16T02:47:29;95440.28;;;11.14;100.00
72409;BME280;60402;48.082;11.628;2022-10-16T02:49:54;95441.19;;;11.11;100.00
72409;BME280;60402;48.082;11.628;2022-10-16T02:52:19;95432.81;;;11.08;100.00
72409;BME280;60402;48.082;11.628;2022-10-16T02:54:45;95439.72;;;11.07;100.00
72409;BME280;60402;48.082;11.628;2022-10-16T02:57:10;95458.03;;;11.15;100.00
72409;BME280;60402;48.082;11.628;2022-10-16T02:59:35;95458.97;;;11.12;100.00
72409;BME280;60402;48.082;11.628;2022-10-16T03:02:00;95452.72;;;11.04;100.00
72409;BME280;60402;48.082;11.628;2022-10-16T03:04:26;95462.22;;;11.10;100.00
72409;BME280;60402;48.082;11.628;2022-10-16T03:06:51;95458.59;;;11.10;100.00
72409;BME280;60402;48.082;11.628;2022-10-16T03:09:16;95449.88;;;11.04;100.00
72409;BME280;60402;48.082;11.628;2022-10-16T03:11:42;95446.25;;;11.04;100.00
72409;BME280;60402;48.082;11.628;2022-10-16T03:14:07;95444.78;;;10.99;100.00
72409;BME280;60402;48.082;11.628;2022-10-16T03:16:32;95450.34;;;11.03;100.00
72409;BME280;60402;48.082;11.628;2022-10-16T03:18:58;95439.91;;;10.99;100.00
72409;BME280;60402;48.082;11.628;2022-10-16T03:21:23;95448.56;;;11.21;100.00
72409;BME280;60402;48.082;11.628;2022-10-16T03:23:48;95440.16;;;11.05;100.00
72409;BME280;60402;48.082;11.628;2022-10-16T03:26:13;95455.28;;;10.98;100.00
72409;BME280;60402;48.082;11.628;2022-10-16T03:28:39;95431.59;;;10.80;100.00
72409;BME280;60402;48.082;11.628;2022-10-16T03:31:04;95460.22;;;10.82;100.00
72409;BME280;60402;48.082;11.628;2022-10-16T03:33:29;95444.59;;;10.77;100.00
72409;BME280;60402;48.082;11.628;2022-10-16T03:35:55;95463.41;;;10.84;100.00
72409;BME280;60402;48.082;11.628;2022-10-16T03:38:21;95463.16;;;10.78;100.00
72409;BME280;60402;48.082;11.628;2022-10-16T03:40:46;95468.44;;;10.76;100.00
72409;BME280;60402;48.082;11.628;2022-10-16T03:43:12;95438.53;;;10.62;100.00
72409;BME280;60402;48.082;11.628;2022-10-16T03:45:37;95439.88;;;10.58;100.00
72409;BME280;60402;48.082;11.628;2022-10-16T03:48:03;95455.22;;;10.73;100.00
72409;BME280;60402;48.082;11.628;2022-10-16T03:50:28;95464.09;;;10.88;100.00
72409;BME280;60402;48.082;11.628;2022-10-16T03:52:54;95466.38;;;10.93;100.00
72409;BME280;60402;48.082;11.628;2022-10-16T03:55:19;95464.44;;;10.90;100.00
72409;BME280;60402;48.082;11.628;2022-10-16T03:57:44;95471.41;;;10.85;100.00
72409;BME280;60402;48.082;11.628;2022-10-16T04:00:10;95470.09;;;10.90;100.00
72409;BME280;60402;48.082;11.628;2022-10-16T04:02:36;95456.25;;;10.79;100.00
72409;BME280;60402;48.082;11.628;2022-10-16T04:05:01;95448.91;;;10.82;100.00
72409;BME280;60402;48.082;11.628;2022-10-16T04:07:26;95445.91;;;10.72;100.00
72409;BME280;60402;48.082;11.628;2022-10-16T04:09:52;95450.25;;;10.77;100.00
72409;BME280;60402;48.082;11.628;2022-10-16T04:12:17;95450.25;;;10.77;100.00
72409;BME280;60402;48.082;11.628;2022-10-16T04:14:42;95457.53;;;10.91;100.00
72409;BME280;60402;48.082;11.628;2022-10-16T04:17:08;95463.69;;;11.02;100.00
72409;BME280;60402;48.082;11.628;2022-10-16T04:19:33;95457.25;;;11.02;100.00
72409;BME280;60402;48.082;11.628;2022-10-16T04:21:58;95445.13;;;11.01;100.00
72409;BME280;60402;48.082;11.628;2022-10-16T04:24:24;95446.13;;;10.94;100.00
72409;BME280;60402;48.082;11.628;2022-10-16T04:26:49;95446.63;;;11.18;100.00
72409;BME280;60402;48.082;11.628;2022-10-16T04:29:14;95443.56;;;11.13;100.00
72409;BME280;60402;48.082;11.628;2022-10-16T04:31:39;95467.34;;;11.28;100.00
72409;BME280;60402;48.082;11.628;2022-10-16T04:34:05;95456.47;;;11.14;100.00
72409;BME280;60402;48.082;11.628;2022-10-16T04:36:30;95475.84;;;11.15;100.00
72409;BME280;60402;48.082;11.628;2022-10-16T04:38:55;95464.38;;;11.19;100.00
72409;BME280;60402;48.082;11.628;2022-10-16T04:41:21;95449.34;;;11.22;100.00
72409;BME280;60402;48.082;11.628;2022-10-16T04:43:46;95466.00;;;11.33;100.00
72409;BME280;60402;48.082;11.628;2022-10-16T04:46:12;95464.75;;;11.34;100.00
72409;BME280;60402;48.082;11.628;2022-10-16T04:48:37;95443.59;;;11.25;100.00
72409;BME280;60402;48.082;11.628;2022-10-16T04:51:03;95464.22;;;11.39;100.00
72409;BME280;60402;48.082;11.628;2022-10-16T04:53:28;95445.28;;;11.23;100.00
72409;BME280;60402;48.082;11.628;2022-10-16T04:55:53;95466.03;;;11.45;100.00
72409;BME280;60402;48.082;11.628;2022-10-16T04:58:19;95452.00;;;11.42;100.00
72409;BME280;60402;48.082;11.628;2022-10-16T05:00:45;95452.56;;;11.49;100.00
72409;BME280;60402;48.082;11.628;2022-10-16T05:03:11;95457.31;;;11.52;100.00
72409;BME280;60402;48.082;11.628;2022-10-16T05:05:42;95461.75;;;11.54;100.00
72409;BME280;60402;48.082;11.628;2022-10-16T05:08:08;95450.06;;;11.51;100.00
72409;BME280;60402;48.082;11.628;2022-10-16T05:10:33;95433.09;;;11.39;100.00
72409;BME280;60402;48.082;11.628;2022-10-16T05:12:59;95434.91;;;11.45;100.00
72409;BME280;60402;48.082;11.628;2022-10-16T05:15:24;95456.78;;;11.58;100.00
72409;BME280;60402;48.082;11.628;2022-10-16T05:17:52;95427.31;;;11.42;100.00
72409;BME280;60402;48.082;11.628;2022-10-16T05:20:18;95456.22;;;11.63;100.00
72409;BME280;60402;48.082;11.628;2022-10-16T05:22:43;95456.91;;;11.67;100.00
72409;BME280;60402;48.082;11.628;2022-10-16T05:25:08;95424.59;;;11.51;100.00
72409;BME280;60402;48.082;11.628;2022-10-16T05:27:33;95450.78;;;11.68;100.00
72409;BME280;60402;48.082;11.628;2022-10-16T05:29:59;95449.06;;;11.71;100.00
72409;BME280;60402;48.082;11.628;2022-10-16T05:32:24;95448.16;;;11.74;100.00
72409;BME280;60402;48.082;11.628;2022-10-16T05:34:50;95461.84;;;11.75;100.00
72409;BME280;60402;48.082;11.628;2022-10-16T05:37:15;95470.16;;;11.83;100.00
72409;BME280;60402;48.082;11.628;2022-10-16T05:39:41;95436.81;;;11.61;100.00
72409;BME280;60402;48.082;11.628;2022-10-16T05:42:06;95464.25;;;11.77;100.00
72409;BME280;60402;48.082;11.628;2022-10-16T05:44:31;95475.16;;;11.91;100.00
72409;BME280;60402;48.082;11.628;2022-10-16T05:46:57;95495.09;;;12.00;100.00
72409;BME280;60402;48.082;11.628;2022-10-16T05:49:22;95495.19;;;11.97;100.00
72409;BME280;60402;48.082;11.628;2022-10-16T05:51:48;95487.72;;;11.90;100.00
72409;BME280;60402;48.082;11.628;2022-10-16T05:54:13;95492.00;;;11.95;100.00
72409;BME280;60402;48.082;11.628;2022-10-16T05:56:39;95495.09;;;12.00;100.00
72409;BME280;60402;48.082;11.628;2022-10-16T05:59:05;95497.78;;;12.04;100.00
72409;BME280;60402;48.082;11.628;2022-10-16T06:01:30;95478.09;;;11.88;100.00
72409;BME280;60402;48.082;11.628;2022-10-16T06:03:56;95475.16;;;11.91;100.00
72409;BME280;60402;48.082;11.628;2022-10-16T06:06:24;95516.81;;;12.16;100.00
72409;BME280;60402;48.082;11.628;2022-10-16T06:08:51;95478.19;;;11.97;100.00
72409;BME280;60402;48.082;11.628;2022-10-16T06:11:19;95470.38;;;12.01;100.00
72409;BME280;60402;48.082;11.628;2022-10-16T06:13:44;95512.63;;;12.34;100.00
72409;BME280;60402;48.082;11.628;2022-10-16T06:16:11;95467.66;;;12.10;100.00
72409;BME280;60402;48.082;11.628;2022-10-16T06:18:39;95512.66;;;12.56;100.00
72409;BME280;60402;48.082;11.628;2022-10-16T06:21:09;95521.16;;;12.68;100.00
72409;BME280;60402;48.082;11.628;2022-10-16T06:23:35;95511.78;;;12.59;99.91
72409;BME280;60402;48.082;11.628;2022-10-16T06:26:07;95525.25;;;12.67;99.69
72409;BME280;60402;48.082;11.628;2022-10-16T06:28:33;95512.31;;;12.66;98.70
72409;BME280;60402;48.082;11.628;2022-10-16T06:30:59;95479.72;;;12.49;99.10
72409;BME280;60402;48.082;11.628;2022-10-16T06:33:25;95509.03;;;12.68;98.41
72409;BME280;60402;48.082;11.628;2022-10-16T06:35:50;95490.88;;;12.65;98.45
72409;BME280;60402;48.082;11.628;2022-10-16T06:38:16;95528.94;;;12.90;97.80
72409;BME280;60402;48.082;11.628;2022-10-16T06:40:41;95528.34;;;12.95;98.06
72409;BME280;60402;48.082;11.628;2022-10-16T06:43:06;95520.16;;;12.97;97.42
72409;BME280;60402;48.082;11.628;2022-10-16T06:45:31;95522.16;;;13.09;96.49
72409;BME280;60402;48.082;11.628;2022-10-16T06:47:57;95524.41;;;13.14;96.76
72409;BME280;60402;48.082;11.628;2022-10-16T06:50:22;95526.75;;;13.28;96.17
72409;BME280;60402;48.082;11.628;2022-10-16T06:52:47;95542.00;;;13.44;95.10
72409;BME280;60402;48.082;11.628;2022-10-16T06:55:13;95545.50;;;13.48;95.11
72409;BME280;60402;48.082;11.628;2022-10-16T06:57:38;95544.38;;;13.45;94.73
72409;BME280;60402;48.082;11.628;2022-10-16T07:00:04;95550.34;;;13.60;94.50
72409;BME280;60402;48.082;11.628;2022-10-16T07:02:30;95514.16;;;13.51;93.19
72409;BME280;60402;48.082;11.628;2022-10-16T07:04:55;95560.06;;;14.03;92.36
72409;BME280;60402;48.082;11.628;2022-10-16T07:07:22;95566.28;;;14.51;90.92
72409;BME280;60402;48.082;11.628;2022-10-16T07:09:49;95522.22;;;14.55;89.17
72409;BME280;60402;48.082;11.628;2022-10-16T07:12:15;95570.84;;;15.07;87.37
72409;BME280;60402;48.082;11.628;2022-10-16T07:14:40;95571.81;;;15.22;85.86
72409;BME280;60402;48.082;11.628;2022-10-16T07:17:05;95558.50;;;16.02;83.48
72409;BME280;60402;48.082;11.628;2022-10-16T07:19:31;95575.56;;;17.82;76.69
72409;BME280;60402;48.082;11.628;2022-10-16T07:21:56;95562.53;;;19.40;71.04
72409;BME280;60402;48.082;11.628;2022-10-16T07:24:22;95582.84;;;21.25;66.41
72409;BME280;60402;48.082;11.628;2022-10-16T07:26:47;95568.19;;;23.20;57.08
72409;BME280;60402;48.082;11.628;2022-10-16T07:29:15;95578.25;;;24.77;50.68
72409;BME280;60402;48.082;11.628;2022-10-16T07:31:41;95589.16;;;26.93;46.08
72409;BME280;60402;48.082;11.628;2022-10-16T07:34:07;95590.19;;;28.00;43.70
72409;BME280;60402;48.082;11.628;2022-10-16T07:36:32;95602.53;;;30.57;38.20
72409;BME280;60402;48.082;11.628;2022-10-16T07:38:58;95595.09;;;30.85;36.96
72409;BME280;60402;48.082;11.628;2022-10-16T07:41:23;95608.47;;;31.70;33.57
72409;BME280;60402;48.082;11.628;2022-10-16T07:43:50;95626.75;;;31.47;33.79
72409;BME280;60402;48.082;11.628;2022-10-16T07:46:16;95626.78;;;31.70;35.07
72409;BME280;60402;48.082;11.628;2022-10-16T07:48:42;95621.53;;;33.58;31.35
72409;BME280;60402;48.082;11.628;2022-10-16T07:51:11;95620.03;;;34.94;30.83
72409;BME280;60402;48.082;11.628;2022-10-16T07:53:36;95626.16;;;35.87;28.09
72409;BME280;60402;48.082;11.628;2022-10-16T07:56:04;95636.53;;;35.88;28.52
72409;BME280;60402;48.082;11.628;2022-10-16T07:58:31;95640.69;;;35.85;28.28
72409;BME280;60402;48.082;11.628;2022-10-16T08:00:58;95641.25;;;37.34;26.65
72409;BME280;60402;48.082;11.628;2022-10-16T08:03:24;95642.13;;;39.45;22.76
72409;BME280;60402;48.082;11.628;2022-10-16T08:05:50;95639.28;;;38.71;24.46
72409;BME280;60402;48.082;11.628;2022-10-16T08:08:16;95646.66;;;38.39;25.14
72409;BME280;60402;48.082;11.628;2022-10-16T08:10:42;95642.28;;;37.68;24.55
72409;BME280;60402;48.082;11.628;2022-10-16T08:13:08;95643.84;;;38.10;24.73
72409;BME280;60402;48.082;11.628;2022-10-16T08:15:33;95643.81;;;39.60;22.86
72409;BME280;60402;48.082;11.628;2022-10-16T08:18:00;95645.88;;;40.26;21.97
72409;BME280;60402;48.082;11.628;2022-10-16T08:20:27;95641.75;;;40.66;21.72
72409;BME280;60402;48.082;11.628;2022-10-16T08:22:53;95645.91;;;39.03;22.80
72409;BME280;60402;48.082;11.628;2022-10-16T08:25:20;95646.31;;;39.30;21.78
72409;BME280;60402;48.082;11.628;2022-10-16T08:27:45;95646.75;;;39.15;23.37
72409;BME280;60402;48.082;11.628;2022-10-16T08:30:11;95650.00;;;38.76;22.66
72409;BME280;60402;48.082;11.628;2022-10-16T08:32:36;95637.34;;;39.07;22.99
72409;BME280;60402;48.082;11.628;2022-10-16T08:35:02;95659.63;;;42.05;19.78
72409;BME280;60402;48.082;11.628;2022-10-16T08:37:31;95660.72;;;41.10;20.29
72409;BME280;60402;48.082;11.628;2022-10-16T08:39:56;95666.28;;;40.92;20.97
72409;BME280;60402;48.082;11.628;2022-10-16T08:50:31;95664.66;;;40.77;21.05
72409;BME280;60402;48.082;11.628;2022-10-16T08:52:58;95669.16;;;41.39;20.16
72409;BME280;60402;48.082;11.628;2022-10-16T08:55:37;95678.00;;;41.14;20.34
72409;BME280;60402;48.082;11.628;2022-10-16T08:58:12;95675.78;;;38.23;23.14
72409;BME280;60402;48.082;11.628;2022-10-16T09:00:38;95672.09;;;39.51;22.08
72409;BME280;60402;48.082;11.628;2022-10-16T09:03:17;95676.38;;;39.05;22.81
72409;BME280;60402;48.082;11.628;2022-10-16T09:06:01;95673.81;;;39.66;21.36
72409;BME280;60402;48.082;11.628;2022-10-16T09:23:15;95683.09;;;37.72;23.14
72409;BME280;60402;48.082;11.628;2022-10-16T09:25:47;95683.41;;;39.22;22.23
72409;BME280;60402;48.082;11.628;2022-10-16T09:28:13;95682.69;;;38.69;22.91
72409;BME280;60402;48.082;11.628;2022-10-16T09:30:39;95662.22;;;37.00;22.58
72409;BME280;60402;48.082;11.628;2022-10-16T09:33:05;95676.38;;;36.45;24.73
72409;BME280;60402;48.082;11.628;2022-10-16T09:35:36;95661.69;;;35.72;25.72
72409;BME280;60402;48.082;11.628;2022-10-16T09:38:02;95682.63;;;34.79;26.48
72409;BME280;60402;48.082;11.628;2022-10-16T09:40:33;95689.84;;;33.28;28.67
72409;BME280;60402;48.082;11.628;2022-10-16T09:48:59;95684.91;;;28.03;37.65
72409;BME280;60402;48.082;11.628;2022-10-16T09:51:32;95688.84;;;26.90;39.92
72409;BME280;60402;48.082;11.628;2022-10-16T09:54:00;95690.31;;;26.16;41.37
72409;BME280;60402;48.082;11.628;2022-10-16T09:56:27;95692.75;;;25.21;43.90
72409;BME280;60402;48.082;11.628;2022-10-16T09:58:55;95694.50;;;24.53;45.92
72409;BME280;60402;48.082;11.628;2022-10-16T10:01:31;95697.81;;;24.10;48.09
72409;BME280;60402;48.082;11.628;2022-10-16T10:04:01;95696.91;;;24.32;47.58
72409;BME280;60402;48.082;11.628;2022-10-16T10:06:30;95699.38;;;24.11;47.73
72409;BME280;60402;48.082;11.628;2022-10-16T10:09:18;95698.41;;;24.56;47.99
72409;BME280;60402;48.082;11.628;2022-10-16T10:11:56;95697.19;;;24.40;48.44
72409;BME280;60402;48.082;11.628;2022-10-16T10:14:34;95684.75;;;23.76;49.06
72409;BME280;60402;48.082;11.628;2022-10-16T10:17:09;95699.69;;;23.91;49.02
72409;BME280;60402;48.082;11.628;2022-10-16T10:19:55;95691.56;;;23.84;49.00
72409;BME280;60402;48.082;11.628;2022-10-16T10:22:43;95687.13;;;23.83;48.59
72409;BME280;60402;48.082;11.628;2022-10-16T10:36:27;95683.50;;;23.15;48.79
72409;BME280;60402;48.082;11.628;2022-10-16T10:38:58;95687.41;;;23.23;48.98
72409;BME280;60402;48.082;11.628;2022-10-16T10:44:16;95693.19;;;23.06;48.05
72409;BME280;60402;48.082;11.628;2022-10-16T10:46:57;95675.09;;;23.28;46.84
72409;BME280;60402;48.082;11.628;2022-10-16T10:52:10;95691.34;;;23.14;47.86
72409;BME280;60402;48.082;11.628;2022-10-16T10:54:49;95680.34;;;23.07;47.25
72409;BME280;60402;48.082;11.628;2022-10-16T11:00:20;95685.56;;;23.37;47.89
72409;BME280;60402;48.082;11.628;2022-10-16T11:05:43;95687.94;;;23.55;46.71
72409;BME280;60402;48.082;11.628;2022-10-16T11:08:20;95691.84;;;23.52;47.12
72409;BME280;60402;48.082;11.628;2022-10-16T11:10:54;95688.44;;;23.42;46.82
72409;BME280;60402;48.082;11.628;2022-10-16T11:13:39;95679.00;;;23.47;46.95
72409;BME280;60402;48.082;11.628;2022-10-16T11:16:28;95677.19;;;23.44;46.96
72409;BME280;60402;48.082;11.628;2022-10-16T11:19:03;95675.88;;;23.51;45.62
72409;BME280;60402;48.082;11.628;2022-10-16T11:21:43;95679.03;;;23.53;46.68
72409;BME280;60402;48.082;11.628;2022-10-16T11:24:24;95682.16;;;23.50;47.16
72409;BME280;60402;48.082;11.628;2022-10-16T11:26:53;95672.47;;;23.41;46.49
72409;BME280;60402;48.082;11.628;2022-10-16T11:29:24;95653.34;;;23.33;44.87
72409;BME280;60402;48.082;11.628;2022-10-16T11:31:53;95681.13;;;23.41;46.07
72409;BME280;60402;48.082;11.628;2022-10-16T11:36:57;95673.25;;;23.59;43.23
72409;BME280;60402;48.082;11.628;2022-10-16T11:39:29;95671.94;;;23.49;44.26
72409;BME280;60402;48.082;11.628;2022-10-16T11:42:19;95677.97;;;23.45;43.69
72409;BME280;60402;48.082;11.628;2022-10-16T11:45:12;95676.38;;;23.61;43.61
72409;BME280;60402;48.082;11.628;2022-10-16T11:47:45;95677.44;;;23.58;45.13
72409;BME280;60402;48.082;11.628;2022-10-16T11:50:17;95679.28;;;23.55;44.38
72409;BME280;60402;48.082;11.628;2022-10-16T11:53:24;95674.84;;;23.49;43.48
72409;BME280;60402;48.082;11.628;2022-10-16T11:55:41;95662.50;;;23.54;42.98
72409;BME280;60402;48.082;11.628;2022-10-16T11:58:26;95659.91;;;23.39;43.53
72409;BME280;60402;48.082;11.628;2022-10-16T12:01:13;95665.13;;;23.40;42.52
72409;BME280;60402;48.082;11.628;2022-10-16T12:06:24;95665.38;;;23.54;43.76
72409;BME280;60402;48.082;11.628;2022-10-16T12:08:53;95660.41;;;23.49;44.14
72409;BME280;60402;48.082;11.628;2022-10-16T12:14:18;95660.66;;;23.56;42.80
72409;BME280;60402;48.082;11.628;2022-10-16T12:19:19;95668.00;;;23.63;41.98
72409;BME280;60402;48.082;11.628;2022-10-16T12:21:45;95663.53;;;23.51;42.78
72409;BME280;60402;48.082;11.628;2022-10-16T12:24:36;95664.59;;;23.47;42.66
72409;BME280;60402;48.082;11.628;2022-10-16T12:27:04;95659.81;;;23.84;41.61
72409;BME280;60402;48.082;11.628;2022-10-16T12:29:41;95660.66;;;23.56;42.04
72409;BME280;60402;48.082;11.628;2022-10-16T12:32:29;95656.75;;;23.37;41.97
72409;BME280;60402;48.082;11.628;2022-10-16T12:34:55;95648.34;;;23.44;44.05
72409;BME280;60402;48.082;11.628;2022-10-16T12:37:24;95657.00;;;23.44;44.17
72409;BME280;60402;48.082;11.628;2022-10-16T12:39:52;95662.75;;;23.50;43.12
72409;BME280;60402;48.082;11.628;2022-10-16T12:44:45;95662.00;;;23.44;41.52
72409;BME280;60402;48.082;11.628;2022-10-16T12:49:53;95664.31;;;23.51;43.65
72409;BME280;60402;48.082;11.628;2022-10-16T12:52:28;95660.41;;;23.54;42.30
72409;BME280;60402;48.082;11.628;2022-10-16T12:55:00;95659.59;;;23.59;42.27
72409;BME280;60402;48.082;11.628;2022-10-16T12:57:55;95662.22;;;23.52;42.38
72409;BME280;60402;48.082;11.628;2022-10-16T13:00:27;95651.50;;;23.35;41.84
72409;BME280;60402;48.082;11.628;2022-10-16T13:05:59;95658.81;;;23.47;42.42
72409;BME280;60402;48.082;11.628;2022-10-16T13:14:01;95659.09;;;23.50;42.48
72409;BME280;60402;48.082;11.628;2022-10-16T13:19:40;95640.50;;;23.28;41.49
72409;BME280;60402;48.082;11.628;2022-10-16T13:27:46;95663.28;;;23.60;41.62
72409;BME280;60402;48.082;11.628;2022-10-16T13:30:17;95653.84;;;23.54;41.11
72409;BME280;60402;48.082;11.628;2022-10-16T13:32:45;95647.56;;;23.44;41.50
72409;BME280;60402;48.082;11.628;2022-10-16T13:35:31;95665.38;;;23.42;41.35
72409;BME280;60402;48.082;11.628;2022-10-16T13:38:13;95651.22;;;23.56;42.45
72409;BME280;60402;48.082;11.628;2022-10-16T13:43:45;95657.81;;;23.39;42.19
72409;BME280;60402;48.082;11.628;2022-10-16T13:46:22;95647.31;;;23.31;42.09
72409;BME280;60402;48.082;11.628;2022-10-16T13:49:03;95657.53;;;23.26;43.09
72409;BME280;60402;48.082;11.628;2022-10-16T13:51:32;95666.72;;;23.25;42.37
72409;BME280;60402;48.082;11.628;2022-10-16T13:53:59;95658.31;;;23.43;42.50
72409;BME280;60402;48.082;11.628;2022-10-16T13:56:27;95656.75;;;23.31;41.63
72409;BME280;60402;48.082;11.628;2022-10-16T13:59:02;95665.13;;;23.46;41.63
72409;BME280;60402;48.082;11.628;2022-10-16T14:01:29;95663.56;;;23.28;42.86
72409;BME280;60402;48.082;11.628;2022-10-16T14:04:04;95660.94;;;23.36;42.65
72409;BME280;60402;48.082;11.628;2022-10-16T14:06:31;95654.91;;;23.23;42.60
72409;BME280;60402;48.082;11.628;2022-10-16T14:09:02;95674.59;;;23.35;42.83
72409;BME280;60402;48.082;11.628;2022-10-16T14:11:30;95666.72;;;23.19;42.41
72409;BME280;60402;48.082;11.628;2022-10-16T14:13:56;95659.38;;;23.12;41.72
72409;BME280;60402;48.082;11.628;2022-10-16T14:16:27;95673.50;;;23.61;42.51
72409;BME280;60402;48.082;11.628;2022-10-16T14:19:04;95660.41;;;23.32;42.52
72409;BME280;60402;48.082;11.628;2022-10-16T14:21:32;95674.81;;;23.37;41.53
72409;BME280;60402;48.082;11.628;2022-10-16T14:23:58;95679.81;;;23.37;40.40
72409;BME280;60402;48.082;11.628;2022-10-16T14:26:26;95665.94;;;23.30;41.30
72409;BME280;60402;48.082;11.628;2022-10-16T14:29:17;95668.28;;;23.37;41.66